11:47
Airports
History
Links
Donate
Help keep this website running!
PayPal
Bitcoin
This page is community maintained. The information is intended for PC simulator navigation or reference.
Always use approved charts for navigation.
EDNL
LEUTKIRCH UNTERZEIL
LEUTKIRCH UNTERZEIL (EDNL)
Leutkirch im Allgäu, Baden-Wurttemberg, Germany (88299)
(C)
Lat/Lng:47° 51' 32.71" N / 10° 0' 52.53" E
47.859085 / 10.014593
Elevation:2099'ft / 640mMSL
ID / ICAO:EDNL
Runways:1
Longest:(06-24) 1,013.9m / 3,326ft Asphalt
Controlled:Yes
Distance To
Airport ID:
Airport Radio Frequencies
Tower: 126.95
Nearby VORs <50NM
Nearby NDBs
Nearby WeatherUpdated 08-20-17 11:20 GMT
Nearby weather at ETHL, LAUPHEIM located 25.6 nautical miles from EDNL
Altimeter: 30.24
Visibility: 5.0 statute miles
Wind: 5 knots (250°)
Temp: 17°c 63°f
Humidity: 55.4%

METAR: ETHL 201120Z AUTO 25005KT 8000 // ////// 17/08 Q1024 ///

(Powered by phpweather)
Runway 06 / 24
Dimensions:1013.9 x 20.1m 3326' x 66'ft
Surface:Asphalt
Edge Lights:Low intensity
Runway 06 [A]Runway 24 [B]
Heading:056°TH 236°TH
Lat:
Lng:
47° 51' 23.49"N
10° 0' 32.1"E
47° 51' 41.92"N
10° 1' 12.97"E
User Notes and Comments
Google Map
Nearby Airports
(C) Tannheim 11.2 NM
EDMT NNE 20°
(U) MEMMINGEN ALLGAU 13.7 NM
EDJA NE 49°
(C) Kempten - Durach 18.9 NM
EDMK SE 127°
(U) BIBERACH AN DER RISS 20.9 NM
EDMB NW 326°
(C) Agathazell 24.1 NM
ED01 SSE 151°
(C) LAUPHEIM 25.6 NM
ETHL (WX) N 349°
(U) Saulgau 26.3 NM
EDTU WNW 296°
VFR Chart
Flight Planning at SkyVector.com